createdAt,value
2017-10-11T00:05:10.273Z,14.1
2017-10-11T00:10:03.043Z,14.1
2017-10-11T00:15:03.289Z,14
2017-10-11T00:20:03.199Z,14.1
2017-10-11T00:25:25.698Z,14.1
2017-10-11T00:30:12.921Z,14.1
2017-10-11T00:35:07.620Z,14.1
2017-10-11T00:40:03.065Z,14.1
2017-10-11T00:45:08.335Z,14.1
2017-10-11T00:50:20.828Z,14.1
2017-10-11T00:55:20.598Z,14.1
2017-10-11T01:00:02.798Z,14.1
2017-10-11T01:05:22.837Z,14.1
2017-10-11T01:10:10.581Z,14.1
2017-10-11T01:15:03.257Z,14.1
2017-10-11T01:20:03.079Z,14.1
2017-10-11T01:25:07.894Z,14.1
2017-10-11T01:30:02.757Z,14.1
2017-10-11T01:35:07.571Z,14.1
2017-10-11T01:40:02.950Z,14.1
2017-10-11T01:45:05.694Z,14.1
2017-10-11T01:50:10.671Z,14.1
2017-10-11T01:55:05.403Z,14
2017-10-11T02:00:10.332Z,13.9
2017-10-11T02:05:02.500Z,13.9
2017-10-11T02:10:02.875Z,13.9
2017-10-11T02:15:05.782Z,13.8
2017-10-11T02:20:08.186Z,13.7
2017-10-11T02:30:05.305Z,13.7
2017-10-11T02:35:02.649Z,13.7
2017-10-11T02:40:08.132Z,13.7
2017-10-11T02:45:03.345Z,0.9
2017-10-11T02:50:08.276Z,13.6
2017-10-11T02:55:30.859Z,13.6
2017-10-11T03:00:05.450Z,13.6
2017-10-11T03:05:02.955Z,13.6
2017-10-11T03:10:03.119Z,13.6
2017-10-11T03:15:05.871Z,13.6
2017-10-11T03:20:20.957Z,13.6
2017-10-11T03:25:05.566Z,13.6
2017-10-11T03:30:02.970Z,13.6
2017-10-11T03:35:10.322Z,13.6
2017-10-11T03:40:08.215Z,13.5
2017-10-11T03:45:07.515Z,13.6
2017-10-11T03:50:05.889Z,13.6
2017-10-11T03:55:10.770Z,13.5
2017-10-11T04:00:10.685Z,13.5
2017-10-11T04:05:20.616Z,13.5
2017-10-11T04:10:08.494Z,13.5
2017-10-11T04:15:05.229Z,13.5
2017-10-11T04:20:05.206Z,13.6
2017-10-11T04:25:05.020Z,13.6
2017-10-11T04:30:15.234Z,13.6
2017-10-11T04:35:02.777Z,13.6
2017-10-11T04:40:02.629Z,13.7
2017-10-11T04:45:02.927Z,13.7
2017-10-11T04:50:02.797Z,13.7
2017-10-11T04:55:02.600Z,13.7
2017-10-11T05:00:05.005Z,13.7
2017-10-11T05:05:08.382Z,13.7
2017-10-11T05:10:05.255Z,13.7
2017-10-11T05:15:05.530Z,13.7
2017-10-11T05:20:23.100Z,13.7
2017-10-11T05:25:05.239Z,13.8
2017-10-11T05:35:02.387Z,13.8
2017-10-11T05:40:07.884Z,13.7
2017-10-11T05:45:03.049Z,13.7
2017-10-11T05:50:05.475Z,13.8
2017-10-11T05:55:15.469Z,13.8
2017-10-11T06:00:17.847Z,13.8
2017-10-11T06:05:05.038Z,13.8
2017-10-11T06:10:05.413Z,13.8
2017-10-11T06:15:08.162Z,13.9
2017-10-11T06:20:08.224Z,13.9
2017-10-11T06:25:07.841Z,14
2017-10-11T06:30:05.214Z,14
2017-10-11T06:35:02.487Z,14
2017-10-11T06:40:02.947Z,14
2017-10-11T06:45:05.726Z,14.1
2017-10-11T06:50:08.157Z,14.2
2017-10-11T06:55:05.456Z,14.3
2017-10-11T07:00:28.161Z,14.3
2017-10-11T07:05:15.324Z,14.3
2017-10-11T07:10:05.595Z,14.3
2017-10-11T07:15:03.337Z,14.3
2017-10-11T07:20:23.506Z,14.4
2017-10-11T07:25:05.596Z,14.5
2017-10-11T07:30:08.118Z,14.5
2017-10-11T07:35:18.002Z,14.6
2017-10-11T07:40:20.942Z,14.6
2017-10-11T07:45:05.119Z,14.7
2017-10-11T07:50:04.996Z,14.7
2017-10-11T07:55:08.367Z,14.7
2017-10-11T08:00:20.874Z,14.9
2017-10-11T08:05:02.996Z,14.9
2017-10-11T08:10:02.476Z,14.9
2017-10-11T08:15:05.339Z,15
2017-10-11T08:20:05.225Z,15.1
2017-10-11T08:25:12.691Z,15.1
2017-10-11T08:30:02.478Z,15.1
2017-10-11T08:35:05.825Z,15.3
2017-10-11T08:40:07.813Z,15.4
2017-10-11T08:45:05.547Z,15.6
2017-10-11T08:50:13.090Z,15.9
2017-10-11T08:55:07.833Z,16
2017-10-11T09:00:02.710Z,16
2017-10-11T09:05:05.114Z,16.1
2017-10-11T09:10:03.099Z,16.1
2017-10-11T09:15:02.467Z,16.1
2017-10-11T09:20:02.454Z,16.1
2017-10-11T09:25:03.340Z,16.1
2017-10-11T09:30:05.847Z,16.1
2017-10-11T09:35:10.792Z,16.2
2017-10-11T09:40:05.219Z,16.1
2017-10-11T09:45:05.646Z,16.1
2017-10-11T09:50:08.130Z,16
2017-10-11T09:55:03.020Z,16
2017-10-11T10:00:08.016Z,15.8
2017-10-11T10:05:02.927Z,15.9
2017-10-11T10:10:12.594Z,15.6
2017-10-11T10:15:18.031Z,15.5
2017-10-11T10:20:02.811Z,15.5
2017-10-11T10:25:02.749Z,15.5
2017-10-11T10:30:12.771Z,15.6
2017-10-11T10:35:17.767Z,15.6
2017-10-11T10:40:03.129Z,15.6
2017-10-11T10:45:04.967Z,15.5
2017-10-11T10:50:07.517Z,15.5
2017-10-11T10:55:05.879Z,15.6
2017-10-11T11:00:15.958Z,15.4
2017-10-11T11:05:05.730Z,15.3
2017-10-11T11:10:17.863Z,15.4
2017-10-11T11:15:03.103Z,15.4
2017-10-11T11:20:03.043Z,15.6
2017-10-11T11:25:13.136Z,15.9
2017-10-11T11:30:10.545Z,16.1
2017-10-11T11:35:07.950Z,16.1
2017-10-11T11:40:04.988Z,16.1
2017-10-11T11:45:15.515Z,16.2
2017-10-11T11:50:02.842Z,16.2
2017-10-11T11:55:10.388Z,16.2
2017-10-11T12:00:33.098Z,16.1
2017-10-11T12:05:05.248Z,16.1
2017-10-11T12:10:05.747Z,16.1
2017-10-11T12:15:07.706Z,16.2
2017-10-11T12:20:12.716Z,16.2
2017-10-11T12:25:10.188Z,16.3
2017-10-11T12:30:15.220Z,16.5
2017-10-11T12:35:05.045Z,16.6
2017-10-11T12:40:05.560Z,16.6
2017-10-11T12:45:17.633Z,16.7
2017-10-11T12:50:07.540Z,17
2017-10-11T12:55:10.092Z,17.2
2017-10-11T13:00:07.625Z,17.1
2017-10-11T13:05:02.508Z,17.1
2017-10-11T13:10:05.511Z,17
2017-10-11T13:15:07.610Z,16.9
2017-10-11T13:20:05.037Z,17
2017-10-11T13:25:07.522Z,17
2017-10-11T13:30:07.612Z,16.8
2017-10-11T13:35:17.651Z,17
2017-10-11T13:40:13.166Z,17
2017-10-11T13:45:05.034Z,16.9
2017-10-11T13:50:02.537Z,16.9
2017-10-11T13:55:02.548Z,16.8
2017-10-11T14:00:07.636Z,16.9
2017-10-11T14:05:05.082Z,16.8
2017-10-11T14:10:05.595Z,16.7
2017-10-11T14:15:05.028Z,16.6
2017-10-11T14:20:02.591Z,16.6
2017-10-11T14:25:10.092Z,16.6
2017-10-11T14:30:07.516Z,16.5
2017-10-11T14:35:02.434Z,16.5
2017-10-11T14:40:15.735Z,16.5
2017-10-11T14:45:15.071Z,16.6
2017-10-11T14:50:02.487Z,16.6
2017-10-11T14:55:10.040Z,16.7
2017-10-11T15:00:02.449Z,16.7
2017-10-11T15:05:02.477Z,16.7
2017-10-11T15:10:10.623Z,16.7
2017-10-11T15:15:12.660Z,16.7
2017-10-11T15:20:02.554Z,16.7
2017-10-11T15:25:02.547Z,16.7
2017-10-11T15:30:05.152Z,16.7
2017-10-11T15:35:05.193Z,16.7
2017-10-11T15:40:15.823Z,16.5
2017-10-11T15:45:07.623Z,16.5
2017-10-11T15:50:05.185Z,16.5
2017-10-11T15:55:10.191Z,16.4
2017-10-11T16:00:05.186Z,12.8
2017-10-11T16:05:12.759Z,16.3
2017-10-11T16:10:08.254Z,16.2
2017-10-11T16:15:07.683Z,16.2
2017-10-11T16:20:02.600Z,16.2
2017-10-11T16:25:02.557Z,16.2
2017-10-11T16:30:02.532Z,16.2
2017-10-11T16:35:15.170Z,16.1
2017-10-11T16:40:05.664Z,16.1
2017-10-11T16:45:07.589Z,16
2017-10-11T16:50:07.604Z,16
2017-10-11T16:55:10.111Z,16
2017-10-11T17:00:10.117Z,16
2017-10-11T17:05:02.417Z,16
2017-10-11T17:10:05.456Z,15.9
2017-10-11T17:15:05.892Z,15.9
2017-10-11T17:20:05.917Z,15.9
2017-10-11T17:25:03.236Z,15.9
2017-10-11T17:30:05.758Z,15.8
2017-10-11T17:35:18.341Z,15.8
2017-10-11T17:40:17.894Z,15.7
2017-10-11T17:45:05.621Z,15.7
2017-10-11T17:50:08.163Z,15.7
2017-10-11T17:55:03.078Z,15.7
2017-10-11T18:00:05.595Z,15.7
2017-10-11T18:05:08.110Z,15.7
2017-10-11T18:10:12.653Z,15.6
2017-10-11T18:15:02.915Z,15.6
2017-10-11T18:20:15.541Z,15.6
2017-10-11T18:25:02.834Z,15.6
2017-10-11T18:30:05.367Z,15.6
2017-10-11T18:35:02.804Z,15.6
2017-10-11T18:40:26.217Z,15.6
2017-10-11T18:45:02.811Z,15.6
2017-10-11T18:50:15.451Z,15.5
2017-10-11T18:55:38.160Z,15.5
2017-10-11T19:00:05.256Z,15.5
2017-10-11T19:05:02.706Z,15.5
2017-10-11T19:10:03.225Z,15.5
2017-10-11T19:15:07.716Z,15.4
2017-10-11T19:25:05.136Z,15.5
2017-10-11T19:30:05.080Z,15.5
2017-10-11T19:35:20.216Z,15.4
2017-10-11T19:40:05.456Z,15.5
2017-10-11T19:45:05.868Z,15.4
2017-10-11T19:50:05.754Z,15.4
2017-10-11T19:55:23.376Z,15.3
2017-10-11T20:00:03.126Z,15.3
2017-10-11T20:05:05.596Z,15.3
2017-10-11T20:10:07.629Z,15.3
2017-10-11T20:15:02.955Z,15.3
2017-10-11T20:20:02.939Z,15.3
2017-10-11T20:25:02.868Z,15.3
2017-10-11T20:30:33.160Z,15.3
2017-10-11T20:35:12.758Z,15.2
2017-10-11T20:40:20.835Z,15.2
2017-10-11T20:45:12.735Z,15.2
2017-10-11T20:50:15.170Z,15.1
2017-10-11T20:55:10.024Z,15.1
2017-10-11T21:00:05.906Z,15.2
2017-10-11T21:05:26.041Z,15.2
2017-10-11T21:10:05.269Z,15.1
2017-10-11T21:15:05.639Z,15.1
2017-10-11T21:20:03.052Z,15.1
2017-10-11T21:25:10.524Z,15
2017-10-11T21:30:02.960Z,15
2017-10-11T21:35:05.286Z,15
2017-10-11T21:40:03.242Z,14.9
2017-10-11T21:45:12.729Z,14.8
2017-10-11T21:50:07.615Z,14.9
2017-10-11T21:55:10.052Z,14.8
2017-10-11T22:00:05.889Z,14.8
2017-10-11T22:05:05.749Z,14.8
2017-10-11T22:10:02.588Z,14.8
2017-10-11T22:15:13.058Z,14.8
2017-10-11T22:20:02.788Z,14.8
2017-10-11T22:25:07.740Z,14.7
2017-10-11T22:30:02.565Z,14.7
2017-10-11T22:35:02.447Z,14.8
2017-10-11T22:40:02.897Z,14.7
2017-10-11T22:45:03.283Z,14.7
2017-10-11T22:50:03.259Z,14.6
2017-10-11T22:55:03.149Z,14.6
2017-10-11T23:00:03.037Z,14.6
2017-10-11T23:05:33.338Z,14.6
2017-10-11T23:10:07.518Z,14.6
2017-10-11T23:15:10.438Z,14.6
2017-10-11T23:20:02.751Z,14.6
2017-10-11T23:25:05.250Z,14.6
2017-10-11T23:30:07.704Z,14.6
2017-10-11T23:35:10.131Z,14.6
2017-10-11T23:40:03.011Z,14.6
2017-10-11T23:45:08.444Z,14.6
2017-10-11T23:50:13.439Z,14.6
2017-10-11T23:55:05.781Z,14.6
